Bangalore, India

2:38 PM IST on August 01, 2015 (GMT +0530)
Pride Orchid | | Change Station
CLOSE
Current Station
Personal Weather Station
Location: Bangalore, KARNATAKA
Elevation: 2890 ft
Nearby Weather Stations

Elev 2890 ft 12.95 °N, 77.72 °E | Updated 3 minutes ago

Partly Cloudy
Partly Cloudy
83.6 °F
Feels Like 86 °F
N
4.0
Wind Variable Wind from WNW
Gusts 6.0 mph

Today
High -- | Low -- °F
--% Chance of Precip.
Yesterday
High -- | Low -- °F
Precip. -- in
6:05 AM 6:46 PM
Full, 99% visible
Pressure 29.95 in
Visibility 6.2 miles
Clouds Scattered Clouds 1500 ft
Scattered Clouds 2000 ft
Few 2500 ft
Heat Index 86 °F
Dew Point 66 °F
Humidity 55%
Rainfall 0.00 in
Snow Depth Not available.
UV 2.0 out of 12
Pollen Not available.
Air Quality Not available.
Flu Activity Not available.
METAR VOBL 010900Z 30009KT 9999 SCT015 SCT020 FEW025TCU 32/22 Q1014 NOSIG RMK TCU E

More Conditions Fewer Conditions

Pressure 29.95 in
Visibility 6.2 miles
Clouds Scattered Clouds 1500 ft
Scattered Clouds 2000 ft
Few 2500 ft
Heat Index 86 °F
Dew Point 66 °F
Humidity 55%
Rainfall 0.00 in
Snow Depth Not available.
UV 2.0 out of 12
Pollen Not available.
Air Quality Not available.
Flu Activity Not available.
METAR VOBL 010900Z 30009KT 9999 SCT015 SCT020 FEW025TCU 32/22 Q1014 NOSIG RMK TCU E

More Conditions Fewer Conditions

10-Day Weather Forecast

×

Almanac

Astronomy

Aug. 01, 2015 Rise Set
Actual Time
Civil Twilight
Nautical Twilight
Astronomical Twilight
Moon
Length of Visible Light
Length of Day
Tomorrow will be .
, % of the Moon is Illuminated

Today's Extremes

Country Highs Country Lows

Community

WunderPhotos

Upload Photos

1,842,905 photos uploaded!

WunderBlogs® & News

Nearby

Air Quality

  Air Quality AQ Index Pollutant
Not available.

Snow Depth

Station Depth Elevation

Earthquake Activity

City Distance Mag. Time & Date
Minimum magnitude displayed is 2.5.

Coastal Water Temperatures

Place Temperature

Stations

Nearby Weather Stations

Station Location Temp. Windchill Dew Point Humidity Wind Precip. Elev Updated Type